Pagina principală
METAR-TAF:

METAR-TAF

Aeroporturi :

Fort Worth Spinks Airport

Fort Worth, Texas, Statele Unite ale Americii

Latitudine: 32-34N, longitudine: 097-18W, elevație: 213 m

Observații meteo curente

Raportul a fost făcut în urmă cu 1 oră și 11 de minute, la 21:46 UTC
Vânt 6 kt de la Est
Temperatură 29°C
Umiditate 52%
Presiune 1018 hPa
Vizibilitate: 16.1 km
Nori puțini la o înălțime de 4500 picior

METAR: KFWS 282146Z 10006KT 10SM FEW045 29/18 A3005

Ora: 17:57 (22:57 UTC)


TAF: lipsă

Observații și prognoze meteo pentru peste 4.000 de aeroporturi (rapoarte METAR și TAF).

Stațiile disponibile sunt reprezentate pe hartă prin puncte galbene și roșii.

Țineți indicatorul mouse-ului pe punctul dorit pentru a vedea denumirea stației.

Apoi, faceți clic pentru a vedea observațiile și prognozele meteorologice.

Pentru a schimba harta: Pentru mărire, faceți clic pe butoanele verzi cu cruce neagră; pentru micșorare, pe butonul verde cu o liniuță; pentru hărți învecinate, pe săgețile verzi.


METAR-TAF: